sensor_id;sensor_type;location;lat;lon;timestamp;P1;durP1;ratioP1;P2;durP2;ratioP2
23720;SDS011;42950;52.134;5.578;2023-07-31T00:01:23;1.30;;;1.17;;
23720;SDS011;42950;52.134;5.578;2023-07-31T00:03:48;2.25;;;1.40;;
23720;SDS011;42950;52.134;5.578;2023-07-31T00:06:14;1.75;;;1.42;;
23720;SDS011;42950;52.134;5.578;2023-07-31T00:08:40;1.48;;;1.25;;
23720;SDS011;42950;52.134;5.578;2023-07-31T00:11:06;1.77;;;1.35;;
23720;SDS011;42950;52.134;5.578;2023-07-31T00:13:31;2.28;;;1.50;;
23720;SDS011;42950;52.134;5.578;2023-07-31T00:15:57;2.67;;;1.55;;
23720;SDS011;42950;52.134;5.578;2023-07-31T00:18:24;2.28;;;1.70;;
23720;SDS011;42950;52.134;5.578;2023-07-31T00:20:50;3.47;;;1.40;;
23720;SDS011;42950;52.134;5.578;2023-07-31T00:23:16;1.92;;;1.73;;
23720;SDS011;42950;52.134;5.578;2023-07-31T00:25:44;2.22;;;1.77;;
23720;SDS011;42950;52.134;5.578;2023-07-31T00:28:10;2.60;;;1.67;;
23720;SDS011;42950;52.134;5.578;2023-07-31T00:30:36;1.83;;;1.52;;
23720;SDS011;42950;52.134;5.578;2023-07-31T00:33:03;2.53;;;1.60;;
23720;SDS011;42950;52.134;5.578;2023-07-31T00:35:28;1.83;;;1.63;;
23720;SDS011;42950;52.134;5.578;2023-07-31T00:37:54;1.60;;;1.50;;
23720;SDS011;42950;52.134;5.578;2023-07-31T00:40:21;1.65;;;1.55;;
23720;SDS011;42950;52.134;5.578;2023-07-31T00:42:46;2.92;;;2.20;;
23720;SDS011;42950;52.134;5.578;2023-07-31T00:45:12;3.92;;;2.78;;
23720;SDS011;42950;52.134;5.578;2023-07-31T00:47:38;4.43;;;3.33;;
23720;SDS011;42950;52.134;5.578;2023-07-31T00:50:04;5.60;;;3.42;;
23720;SDS011;42950;52.134;5.578;2023-07-31T00:52:30;8.95;;;5.13;;
23720;SDS011;42950;52.134;5.578;2023-07-31T00:54:56;14.63;;;5.25;;
23720;SDS011;42950;52.134;5.578;2023-07-31T00:57:22;18.13;;;6.47;;
23720;SDS011;42950;52.134;5.578;2023-07-31T00:59:48;18.60;;;6.68;;
23720;SDS011;42950;52.134;5.578;2023-07-31T01:02:13;16.58;;;7.22;;
23720;SDS011;42950;52.134;5.578;2023-07-31T01:04:39;20.73;;;7.82;;
23720;SDS011;42950;52.134;5.578;2023-07-31T01:12:29;31.60;;;10.02;;
23720;SDS011;42950;52.134;5.578;2023-07-31T01:15:09;25.58;;;8.57;;
23720;SDS011;42950;52.134;5.578;2023-07-31T01:17:39;33.95;;;9.48;;
23720;SDS011;42950;52.134;5.578;2023-07-31T01:20:15;31.75;;;9.02;;
23720;SDS011;42950;52.134;5.578;2023-07-31T01:28:13;34.92;;;9.73;;
23720;SDS011;42950;52.134;5.578;2023-07-31T01:30:44;34.33;;;10.32;;
23720;SDS011;42950;52.134;5.578;2023-07-31T01:33:13;36.03;;;10.50;;
23720;SDS011;42950;52.134;5.578;2023-07-31T01:35:42;29.95;;;10.13;;
23720;SDS011;42950;52.134;5.578;2023-07-31T01:38:09;28.25;;;8.43;;
23720;SDS011;42950;52.134;5.578;2023-07-31T01:40:35;26.92;;;7.35;;
23720;SDS011;42950;52.134;5.578;2023-07-31T01:43:01;20.02;;;6.90;;
23720;SDS011;42950;52.134;5.578;2023-07-31T01:45:28;16.55;;;6.45;;
23720;SDS011;42950;52.134;5.578;2023-07-31T01:47:53;17.30;;;6.65;;
23720;SDS011;42950;52.134;5.578;2023-07-31T01:50:19;18.77;;;6.72;;
23720;SDS011;42950;52.134;5.578;2023-07-31T01:52:45;21.42;;;6.82;;
23720;SDS011;42950;52.134;5.578;2023-07-31T01:55:10;23.90;;;6.90;;
23720;SDS011;42950;52.134;5.578;2023-07-31T01:57:36;20.02;;;7.07;;
23720;SDS011;42950;52.134;5.578;2023-07-31T02:00:03;24.83;;;7.55;;
23720;SDS011;42950;52.134;5.578;2023-07-31T02:02:30;24.40;;;8.48;;
23720;SDS011;42950;52.134;5.578;2023-07-31T02:04:56;24.67;;;8.98;;
23720;SDS011;42950;52.134;5.578;2023-07-31T02:07:22;29.88;;;9.68;;
23720;SDS011;42950;52.134;5.578;2023-07-31T02:09:47;25.40;;;8.85;;
23720;SDS011;42950;52.134;5.578;2023-07-31T02:12:13;25.85;;;8.68;;
23720;SDS011;42950;52.134;5.578;2023-07-31T02:14:40;27.33;;;8.88;;
23720;SDS011;42950;52.134;5.578;2023-07-31T02:17:06;28.95;;;8.90;;
23720;SDS011;42950;52.134;5.578;2023-07-31T02:19:31;24.98;;;8.75;;
23720;SDS011;42950;52.134;5.578;2023-07-31T02:21:57;20.75;;;7.55;;
23720;SDS011;42950;52.134;5.578;2023-07-31T02:24:24;18.83;;;6.93;;
23720;SDS011;42950;52.134;5.578;2023-07-31T02:26:50;21.65;;;7.50;;
23720;SDS011;42950;52.134;5.578;2023-07-31T02:29:16;19.90;;;7.72;;
23720;SDS011;42950;52.134;5.578;2023-07-31T02:31:41;23.58;;;7.50;;
23720;SDS011;42950;52.134;5.578;2023-07-31T02:34:08;22.23;;;8.00;;
23720;SDS011;42950;52.134;5.578;2023-07-31T02:36:34;20.15;;;8.02;;
23720;SDS011;42950;52.134;5.578;2023-07-31T02:38:59;25.42;;;8.30;;
23720;SDS011;42950;52.134;5.578;2023-07-31T02:41:25;24.20;;;8.40;;
23720;SDS011;42950;52.134;5.578;2023-07-31T02:43:51;18.65;;;7.68;;
23720;SDS011;42950;52.134;5.578;2023-07-31T02:46:18;25.63;;;7.75;;
23720;SDS011;42950;52.134;5.578;2023-07-31T02:48:44;20.02;;;7.80;;
23720;SDS011;42950;52.134;5.578;2023-07-31T02:51:10;22.38;;;7.60;;
23720;SDS011;42950;52.134;5.578;2023-07-31T02:53:36;24.67;;;7.53;;
23720;SDS011;42950;52.134;5.578;2023-07-31T02:56:02;22.65;;;7.95;;
23720;SDS011;42950;52.134;5.578;2023-07-31T02:58:27;22.67;;;7.32;;
23720;SDS011;42950;52.134;5.578;2023-07-31T03:00:55;23.08;;;8.02;;
23720;SDS011;42950;52.134;5.578;2023-07-31T03:03:20;22.33;;;7.20;;
23720;SDS011;42950;52.134;5.578;2023-07-31T03:05:46;32.03;;;8.43;;
23720;SDS011;42950;52.134;5.578;2023-07-31T03:08:12;20.48;;;8.25;;
23720;SDS011;42950;52.134;5.578;2023-07-31T03:10:37;26.58;;;8.38;;
23720;SDS011;42950;52.134;5.578;2023-07-31T03:13:04;24.48;;;8.25;;
23720;SDS011;42950;52.134;5.578;2023-07-31T03:15:32;29.20;;;8.70;;
23720;SDS011;42950;52.134;5.578;2023-07-31T03:17:58;23.60;;;7.60;;
23720;SDS011;42950;52.134;5.578;2023-07-31T03:20:24;26.05;;;9.10;;
23720;SDS011;42950;52.134;5.578;2023-07-31T03:22:50;29.02;;;8.57;;
23720;SDS011;42950;52.134;5.578;2023-07-31T03:25:15;30.45;;;9.13;;
23720;SDS011;42950;52.134;5.578;2023-07-31T03:27:41;32.80;;;10.20;;
23720;SDS011;42950;52.134;5.578;2023-07-31T03:30:07;27.88;;;9.60;;
23720;SDS011;42950;52.134;5.578;2023-07-31T03:32:34;29.35;;;9.13;;
23720;SDS011;42950;52.134;5.578;2023-07-31T03:34:59;25.85;;;9.98;;
23720;SDS011;42950;52.134;5.578;2023-07-31T03:37:25;28.90;;;9.93;;
23720;SDS011;42950;52.134;5.578;2023-07-31T03:39:51;34.28;;;10.60;;
23720;SDS011;42950;52.134;5.578;2023-07-31T03:42:17;28.65;;;9.63;;
23720;SDS011;42950;52.134;5.578;2023-07-31T03:44:42;29.08;;;10.30;;
23720;SDS011;42950;52.134;5.578;2023-07-31T03:47:08;28.90;;;9.65;;
23720;SDS011;42950;52.134;5.578;2023-07-31T03:49:34;24.10;;;8.73;;
23720;SDS011;42950;52.134;5.578;2023-07-31T03:51:59;37.80;;;10.60;;
23720;SDS011;42950;52.134;5.578;2023-07-31T03:54:25;34.67;;;10.00;;
23720;SDS011;42950;52.134;5.578;2023-07-31T03:56:51;28.20;;;9.55;;
23720;SDS011;42950;52.134;5.578;2023-07-31T03:59:18;28.35;;;9.57;;
23720;SDS011;42950;52.134;5.578;2023-07-31T04:01:44;33.22;;;10.15;;
23720;SDS011;42950;52.134;5.578;2023-07-31T04:04:09;32.47;;;9.43;;
23720;SDS011;42950;52.134;5.578;2023-07-31T04:06:35;28.58;;;8.98;;
23720;SDS011;42950;52.134;5.578;2023-07-31T04:09:01;28.48;;;9.70;;
23720;SDS011;42950;52.134;5.578;2023-07-31T04:11:27;28.10;;;9.10;;
23720;SDS011;42950;52.134;5.578;2023-07-31T04:13:53;28.55;;;9.50;;
23720;SDS011;42950;52.134;5.578;2023-07-31T04:16:19;28.67;;;9.13;;
23720;SDS011;42950;52.134;5.578;2023-07-31T04:18:44;26.52;;;9.48;;
23720;SDS011;42950;52.134;5.578;2023-07-31T04:21:12;29.65;;;9.43;;
23720;SDS011;42950;52.134;5.578;2023-07-31T04:23:38;25.48;;;8.85;;
23720;SDS011;42950;52.134;5.578;2023-07-31T04:26:03;25.25;;;9.30;;
23720;SDS011;42950;52.134;5.578;2023-07-31T04:28:29;27.38;;;9.68;;
23720;SDS011;42950;52.134;5.578;2023-07-31T04:30:56;22.63;;;9.05;;
23720;SDS011;42950;52.134;5.578;2023-07-31T04:33:22;23.92;;;8.77;;
23720;SDS011;42950;52.134;5.578;2023-07-31T04:35:52;27.05;;;8.90;;
23720;SDS011;42950;52.134;5.578;2023-07-31T04:38:19;28.63;;;9.32;;
23720;SDS011;42950;52.134;5.578;2023-07-31T04:40:46;26.30;;;9.00;;
23720;SDS011;42950;52.134;5.578;2023-07-31T04:43:12;30.52;;;9.70;;
23720;SDS011;42950;52.134;5.578;2023-07-31T04:45:38;20.52;;;7.93;;
23720;SDS011;42950;52.134;5.578;2023-07-31T04:48:04;24.65;;;8.80;;
23720;SDS011;42950;52.134;5.578;2023-07-31T04:50:29;23.27;;;8.98;;
23720;SDS011;42950;52.134;5.578;2023-07-31T04:52:56;26.67;;;8.93;;
23720;SDS011;42950;52.134;5.578;2023-07-31T04:55:23;28.17;;;8.82;;
23720;SDS011;42950;52.134;5.578;2023-07-31T04:57:49;22.42;;;8.20;;
23720;SDS011;42950;52.134;5.578;2023-07-31T05:00:14;23.17;;;8.90;;
23720;SDS011;42950;52.134;5.578;2023-07-31T05:02:40;25.17;;;9.32;;
23720;SDS011;42950;52.134;5.578;2023-07-31T05:05:12;30.27;;;9.30;;
23720;SDS011;42950;52.134;5.578;2023-07-31T05:07:37;25.38;;;8.75;;
23720;SDS011;42950;52.134;5.578;2023-07-31T05:10:03;24.45;;;8.88;;
23720;SDS011;42950;52.134;5.578;2023-07-31T05:12:30;30.35;;;9.32;;
23720;SDS011;42950;52.134;5.578;2023-07-31T05:14:56;25.48;;;9.25;;
23720;SDS011;42950;52.134;5.578;2023-07-31T05:17:21;24.45;;;8.68;;
23720;SDS011;42950;52.134;5.578;2023-07-31T05:19:53;29.75;;;8.88;;
23720;SDS011;42950;52.134;5.578;2023-07-31T05:22:20;22.45;;;9.18;;
23720;SDS011;42950;52.134;5.578;2023-07-31T05:24:46;22.42;;;8.50;;
23720;SDS011;42950;52.134;5.578;2023-07-31T05:27:12;29.30;;;8.85;;
23720;SDS011;42950;52.134;5.578;2023-07-31T05:29:40;22.15;;;8.43;;
23720;SDS011;42950;52.134;5.578;2023-07-31T05:32:06;26.30;;;8.57;;
23720;SDS011;42950;52.134;5.578;2023-07-31T05:34:32;24.33;;;7.90;;
23720;SDS011;42950;52.134;5.578;2023-07-31T05:36:57;24.10;;;8.13;;
23720;SDS011;42950;52.134;5.578;2023-07-31T05:39:23;17.25;;;7.07;;
23720;SDS011;42950;52.134;5.578;2023-07-31T05:41:49;19.50;;;7.25;;
23720;SDS011;42950;52.134;5.578;2023-07-31T05:44:14;18.08;;;6.75;;
23720;SDS011;42950;52.134;5.578;2023-07-31T05:46:40;14.52;;;7.05;;
23720;SDS011;42950;52.134;5.578;2023-07-31T05:49:06;16.80;;;6.53;;
23720;SDS011;42950;52.134;5.578;2023-07-31T05:51:35;14.38;;;6.15;;
23720;SDS011;42950;52.134;5.578;2023-07-31T05:54:00;11.13;;;5.70;;
23720;SDS011;42950;52.134;5.578;2023-07-31T05:56:26;11.60;;;5.28;;
23720;SDS011;42950;52.134;5.578;2023-07-31T05:58:52;8.38;;;4.88;;
23720;SDS011;42950;52.134;5.578;2023-07-31T06:01:18;9.02;;;5.53;;
23720;SDS011;42950;52.134;5.578;2023-07-31T06:03:44;11.27;;;5.55;;
23720;SDS011;42950;52.134;5.578;2023-07-31T06:06:13;10.68;;;6.43;;
23720;SDS011;42950;52.134;5.578;2023-07-31T06:08:39;8.90;;;5.78;;
23720;SDS011;42950;52.134;5.578;2023-07-31T06:11:05;11.20;;;5.88;;
23720;SDS011;42950;52.134;5.578;2023-07-31T06:13:30;9.65;;;5.63;;
23720;SDS011;42950;52.134;5.578;2023-07-31T06:15:56;13.80;;;7.05;;
23720;SDS011;42950;52.134;5.578;2023-07-31T06:18:22;10.95;;;6.65;;
23720;SDS011;42950;52.134;5.578;2023-07-31T06:20:47;12.43;;;6.75;;
23720;SDS011;42950;52.134;5.578;2023-07-31T06:23:18;11.77;;;6.25;;
23720;SDS011;42950;52.134;5.578;2023-07-31T06:25:44;12.70;;;6.85;;
23720;SDS011;42950;52.134;5.578;2023-07-31T06:28:10;13.32;;;6.75;;
23720;SDS011;42950;52.134;5.578;2023-07-31T06:30:35;10.75;;;6.40;;
23720;SDS011;42950;52.134;5.578;2023-07-31T06:33:01;12.95;;;6.57;;
23720;SDS011;42950;52.134;5.578;2023-07-31T06:35:28;13.07;;;6.03;;
23720;SDS011;42950;52.134;5.578;2023-07-31T06:37:54;11.77;;;6.18;;
23720;SDS011;42950;52.134;5.578;2023-07-31T06:40:20;8.80;;;5.32;;
23720;SDS011;42950;52.134;5.578;2023-07-31T06:42:46;8.93;;;5.72;;
23720;SDS011;42950;52.134;5.578;2023-07-31T06:45:12;10.00;;;5.53;;
23720;SDS011;42950;52.134;5.578;2023-07-31T06:47:38;8.60;;;5.22;;
23720;SDS011;42950;52.134;5.578;2023-07-31T06:50:04;10.52;;;5.38;;
23720;SDS011;42950;52.134;5.578;2023-07-31T06:52:30;9.55;;;5.32;;
23720;SDS011;42950;52.134;5.578;2023-07-31T06:57:47;10.90;;;5.07;;
23720;SDS011;42950;52.134;5.578;2023-07-31T07:00:14;10.43;;;4.43;;
23720;SDS011;42950;52.134;5.578;2023-07-31T07:02:40;10.07;;;4.85;;
23720;SDS011;42950;52.134;5.578;2023-07-31T07:05:06;6.20;;;4.05;;
23720;SDS011;42950;52.134;5.578;2023-07-31T07:07:32;8.25;;;4.50;;
23720;SDS011;42950;52.134;5.578;2023-07-31T07:09:58;6.65;;;4.57;;
23720;SDS011;42950;52.134;5.578;2023-07-31T07:12:27;6.03;;;4.22;;
23720;SDS011;42950;52.134;5.578;2023-07-31T07:14:54;9.13;;;4.88;;
23720;SDS011;42950;52.134;5.578;2023-07-31T07:17:20;6.18;;;4.00;;
23720;SDS011;42950;52.134;5.578;2023-07-31T07:19:47;7.35;;;4.00;;
23720;SDS011;42950;52.134;5.578;2023-07-31T07:22:13;6.47;;;3.65;;
23720;SDS011;42950;52.134;5.578;2023-07-31T07:24:40;5.18;;;3.85;;
23720;SDS011;42950;52.134;5.578;2023-07-31T07:27:12;4.38;;;3.72;;
23720;SDS011;42950;52.134;5.578;2023-07-31T07:29:38;7.18;;;4.00;;
23720;SDS011;42950;52.134;5.578;2023-07-31T07:32:04;6.45;;;3.92;;
23720;SDS011;42950;52.134;5.578;2023-07-31T07:34:31;5.00;;;4.00;;
23720;SDS011;42950;52.134;5.578;2023-07-31T07:36:56;6.43;;;4.35;;
23720;SDS011;42950;52.134;5.578;2023-07-31T07:39:22;5.10;;;4.15;;
23720;SDS011;42950;52.134;5.578;2023-07-31T07:41:48;6.40;;;4.13;;
23720;SDS011;42950;52.134;5.578;2023-07-31T07:44:16;6.70;;;4.10;;
23720;SDS011;42950;52.134;5.578;2023-07-31T07:46:41;6.57;;;4.68;;
23720;SDS011;42950;52.134;5.578;2023-07-31T07:49:07;5.90;;;4.47;;
23720;SDS011;42950;52.134;5.578;2023-07-31T07:51:33;8.02;;;4.50;;
23720;SDS011;42950;52.134;5.578;2023-07-31T07:53:58;4.95;;;4.43;;
23720;SDS011;42950;52.134;5.578;2023-07-31T07:56:27;6.78;;;4.72;;
23720;SDS011;42950;52.134;5.578;2023-07-31T07:58:53;6.25;;;4.75;;
23720;SDS011;42950;52.134;5.578;2023-07-31T08:01:20;7.25;;;4.30;;
23720;SDS011;42950;52.134;5.578;2023-07-31T08:03:46;5.05;;;4.00;;
23720;SDS011;42950;52.134;5.578;2023-07-31T08:06:12;7.05;;;4.35;;
23720;SDS011;42950;52.134;5.578;2023-07-31T08:08:38;8.90;;;4.10;;
23720;SDS011;42950;52.134;5.578;2023-07-31T08:11:07;5.07;;;3.90;;
23720;SDS011;42950;52.134;5.578;2023-07-31T08:13:32;4.80;;;3.97;;
23720;SDS011;42950;52.134;5.578;2023-07-31T08:15:58;6.15;;;4.18;;
23720;SDS011;42950;52.134;5.578;2023-07-31T08:18:24;5.40;;;4.35;;
23720;SDS011;42950;52.134;5.578;2023-07-31T08:20:50;8.73;;;4.47;;
23720;SDS011;42950;52.134;5.578;2023-07-31T08:23:17;5.25;;;4.75;;
23720;SDS011;42950;52.134;5.578;2023-07-31T08:25:43;6.38;;;4.68;;
23720;SDS011;42950;52.134;5.578;2023-07-31T08:28:09;6.05;;;4.00;;
23720;SDS011;42950;52.134;5.578;2023-07-31T08:30:35;4.10;;;3.70;;
23720;SDS011;42950;52.134;5.578;2023-07-31T08:33:02;6.53;;;3.83;;
23720;SDS011;42950;52.134;5.578;2023-07-31T08:35:28;5.45;;;3.85;;
23720;SDS011;42950;52.134;5.578;2023-07-31T08:37:58;6.25;;;4.10;;
23720;SDS011;42950;52.134;5.578;2023-07-31T08:40:24;4.45;;;3.80;;
23720;SDS011;42950;52.134;5.578;2023-07-31T08:42:52;4.13;;;3.65;;
23720;SDS011;42950;52.134;5.578;2023-07-31T08:45:19;3.90;;;3.60;;
23720;SDS011;42950;52.134;5.578;2023-07-31T08:47:47;3.80;;;3.50;;
23720;SDS011;42950;52.134;5.578;2023-07-31T08:50:17;7.07;;;3.65;;
23720;SDS011;42950;52.134;5.578;2023-07-31T08:52:45;3.28;;;2.97;;
23720;SDS011;42950;52.134;5.578;2023-07-31T08:55:12;3.55;;;2.95;;
23720;SDS011;42950;52.134;5.578;2023-07-31T08:57:38;3.28;;;2.90;;
23720;SDS011;42950;52.134;5.578;2023-07-31T09:00:05;3.60;;;3.30;;
23720;SDS011;42950;52.134;5.578;2023-07-31T09:02:46;4.25;;;3.20;;
23720;SDS011;42950;52.134;5.578;2023-07-31T09:05:21;4.57;;;3.40;;
23720;SDS011;42950;52.134;5.578;2023-07-31T09:07:47;6.43;;;3.70;;
23720;SDS011;42950;52.134;5.578;2023-07-31T09:10:15;3.58;;;3.28;;
23720;SDS011;42950;52.134;5.578;2023-07-31T09:12:40;4.00;;;3.70;;
23720;SDS011;42950;52.134;5.578;2023-07-31T09:15:07;4.13;;;3.72;;
23720;SDS011;42950;52.134;5.578;2023-07-31T09:17:35;3.50;;;3.20;;
23720;SDS011;42950;52.134;5.578;2023-07-31T09:20:12;3.40;;;3.20;;
23720;SDS011;42950;52.134;5.578;2023-07-31T09:22:41;4.35;;;3.67;;
23720;SDS011;42950;52.134;5.578;2023-07-31T09:25:15;4.25;;;3.85;;
23720;SDS011;42950;52.134;5.578;2023-07-31T09:27:56;4.22;;;3.53;;
23720;SDS011;42950;52.134;5.578;2023-07-31T09:30:24;3.47;;;3.20;;
23720;SDS011;42950;52.134;5.578;2023-07-31T09:32:50;3.60;;;3.30;;
23720;SDS011;42950;52.134;5.578;2023-07-31T09:35:29;5.30;;;3.55;;
23720;SDS011;42950;52.134;5.578;2023-07-31T09:38:01;3.15;;;2.95;;
23720;SDS011;42950;52.134;5.578;2023-07-31T09:40:39;3.97;;;3.67;;
23720;SDS011;42950;52.134;5.578;2023-07-31T09:43:07;4.18;;;3.58;;
23720;SDS011;42950;52.134;5.578;2023-07-31T09:45:36;4.10;;;3.70;;
23720;SDS011;42950;52.134;5.578;2023-07-31T09:48:03;5.00;;;4.43;;
23720;SDS011;42950;52.134;5.578;2023-07-31T09:50:36;5.22;;;4.30;;
23720;SDS011;42950;52.134;5.578;2023-07-31T09:53:04;5.80;;;3.95;;
23720;SDS011;42950;52.134;5.578;2023-07-31T09:55:31;5.68;;;4.57;;
23720;SDS011;42950;52.134;5.578;2023-07-31T09:57:57;5.85;;;4.50;;
23720;SDS011;42950;52.134;5.578;2023-07-31T10:00:23;5.07;;;4.15;;
23720;SDS011;42950;52.134;5.578;2023-07-31T10:02:51;5.32;;;3.97;;
23720;SDS011;42950;52.134;5.578;2023-07-31T10:05:18;4.55;;;4.15;;
23720;SDS011;42950;52.134;5.578;2023-07-31T10:07:51;5.32;;;4.50;;
23720;SDS011;42950;52.134;5.578;2023-07-31T10:10:20;4.47;;;4.07;;
23720;SDS011;42950;52.134;5.578;2023-07-31T10:12:48;4.32;;;3.90;;
23720;SDS011;42950;52.134;5.578;2023-07-31T10:15:15;5.18;;;4.45;;
23720;SDS011;42950;52.134;5.578;2023-07-31T10:17:41;4.28;;;3.80;;
23720;SDS011;42950;52.134;5.578;2023-07-31T10:20:07;5.30;;;4.10;;
23720;SDS011;42950;52.134;5.578;2023-07-31T10:22:33;5.43;;;4.15;;
23720;SDS011;42950;52.134;5.578;2023-07-31T10:24:59;6.25;;;5.00;;
23720;SDS011;42950;52.134;5.578;2023-07-31T10:27:26;5.63;;;4.82;;
23720;SDS011;42950;52.134;5.578;2023-07-31T10:29:52;7.05;;;5.40;;
23720;SDS011;42950;52.134;5.578;2023-07-31T10:32:21;9.63;;;5.80;;
23720;SDS011;42950;52.134;5.578;2023-07-31T10:34:48;6.65;;;6.00;;
23720;SDS011;42950;52.134;5.578;2023-07-31T10:40:09;9.40;;;5.90;;
23720;SDS011;42950;52.134;5.578;2023-07-31T10:42:51;6.65;;;5.68;;
23720;SDS011;42950;52.134;5.578;2023-07-31T10:45:25;8.75;;;5.63;;
23720;SDS011;42950;52.134;5.578;2023-07-31T10:48:03;8.57;;;6.10;;
23720;SDS011;42950;52.134;5.578;2023-07-31T10:50:30;8.82;;;6.22;;
23720;SDS011;42950;52.134;5.578;2023-07-31T10:53:00;7.22;;;5.65;;
23720;SDS011;42950;52.134;5.578;2023-07-31T10:55:39;8.75;;;6.28;;
23720;SDS011;42950;52.134;5.578;2023-07-31T10:58:08;10.60;;;6.05;;
23720;SDS011;42950;52.134;5.578;2023-07-31T11:00:36;6.82;;;5.65;;
23720;SDS011;42950;52.134;5.578;2023-07-31T11:03:10;6.15;;;4.65;;
23720;SDS011;42950;52.134;5.578;2023-07-31T11:08:32;8.65;;;5.50;;
23720;SDS011;42950;52.134;5.578;2023-07-31T11:13:31;7.25;;;4.70;;
23720;SDS011;42950;52.134;5.578;2023-07-31T11:15:58;5.97;;;4.80;;
23720;SDS011;42950;52.134;5.578;2023-07-31T11:18:28;6.75;;;5.22;;
23720;SDS011;42950;52.134;5.578;2023-07-31T11:20:53;8.07;;;4.97;;
23720;SDS011;42950;52.134;5.578;2023-07-31T11:23:19;5.70;;;4.07;;
23720;SDS011;42950;52.134;5.578;2023-07-31T11:25:46;5.13;;;3.80;;
23720;SDS011;42950;52.134;5.578;2023-07-31T11:28:12;5.20;;;3.72;;
23720;SDS011;42950;52.134;5.578;2023-07-31T11:30:39;4.68;;;4.00;;
23720;SDS011;42950;52.134;5.578;2023-07-31T11:33:06;5.40;;;3.50;;
23720;SDS011;42950;52.134;5.578;2023-07-31T11:35:33;3.40;;;3.05;;
23720;SDS011;42950;52.134;5.578;2023-07-31T11:38:10;4.65;;;3.10;;
23720;SDS011;42950;52.134;5.578;2023-07-31T11:40:49;3.40;;;3.10;;
23720;SDS011;42950;52.134;5.578;2023-07-31T11:43:15;4.47;;;3.45;;
23720;SDS011;42950;52.134;5.578;2023-07-31T11:45:45;4.18;;;3.50;;
23720;SDS011;42950;52.134;5.578;2023-07-31T11:48:22;3.90;;;3.45;;
23720;SDS011;42950;52.134;5.578;2023-07-31T11:50:49;4.68;;;3.30;;
23720;SDS011;42950;52.134;5.578;2023-07-31T11:53:17;4.72;;;4.00;;
23720;SDS011;42950;52.134;5.578;2023-07-31T11:55:47;4.70;;;4.20;;
23720;SDS011;42950;52.134;5.578;2023-07-31T11:58:14;4.78;;;4.30;;
23720;SDS011;42950;52.134;5.578;2023-07-31T12:00:43;5.95;;;5.00;;
23720;SDS011;42950;52.134;5.578;2023-07-31T12:03:08;5.15;;;4.70;;
23720;SDS011;42950;52.134;5.578;2023-07-31T12:05:35;6.90;;;5.10;;
23720;SDS011;42950;52.134;5.578;2023-07-31T12:08:05;5.63;;;5.07;;
23720;SDS011;42950;52.134;5.578;2023-07-31T12:10:37;5.93;;;5.25;;
23720;SDS011;42950;52.134;5.578;2023-07-31T12:13:09;5.88;;;5.38;;
23720;SDS011;42950;52.134;5.578;2023-07-31T12:15:40;5.80;;;5.30;;
23720;SDS011;42950;52.134;5.578;2023-07-31T12:18:08;7.28;;;5.60;;
23720;SDS011;42950;52.134;5.578;2023-07-31T12:20:34;5.40;;;5.00;;
23720;SDS011;42950;52.134;5.578;2023-07-31T12:23:00;5.85;;;4.70;;
23720;SDS011;42950;52.134;5.578;2023-07-31T12:25:29;4.80;;;4.28;;
23720;SDS011;42950;52.134;5.578;2023-07-31T12:27:56;8.07;;;4.22;;
23720;SDS011;42950;52.134;5.578;2023-07-31T12:30:34;5.38;;;3.80;;
23720;SDS011;42950;52.134;5.578;2023-07-31T12:33:04;4.40;;;3.90;;
23720;SDS011;42950;52.134;5.578;2023-07-31T12:35:37;4.30;;;3.13;;
23720;SDS011;42950;52.134;5.578;2023-07-31T12:38:03;4.18;;;3.70;;
23720;SDS011;42950;52.134;5.578;2023-07-31T12:40:29;3.75;;;3.28;;
23720;SDS011;42950;52.134;5.578;2023-07-31T12:42:54;4.70;;;3.33;;
23720;SDS011;42950;52.134;5.578;2023-07-31T12:45:20;3.47;;;3.05;;
23720;SDS011;42950;52.134;5.578;2023-07-31T12:47:46;3.10;;;2.90;;
23720;SDS011;42950;52.134;5.578;2023-07-31T12:50:12;4.30;;;3.10;;
23720;SDS011;42950;52.134;5.578;2023-07-31T12:52:43;5.90;;;3.28;;
23720;SDS011;42950;52.134;5.578;2023-07-31T12:55:09;3.83;;;3.40;;
23720;SDS011;42950;52.134;5.578;2023-07-31T12:57:35;4.25;;;3.88;;
23720;SDS011;42950;52.134;5.578;2023-07-31T13:00:01;4.80;;;3.90;;
23720;SDS011;42950;52.134;5.578;2023-07-31T13:02:28;4.22;;;3.92;;
23720;SDS011;42950;52.134;5.578;2023-07-31T13:04:53;4.47;;;4.18;;
23720;SDS011;42950;52.134;5.578;2023-07-31T13:07:19;4.63;;;4.05;;
23720;SDS011;42950;52.134;5.578;2023-07-31T13:09:46;4.32;;;4.03;;
23720;SDS011;42950;52.134;5.578;2023-07-31T13:12:11;4.30;;;3.90;;
23720;SDS011;42950;52.134;5.578;2023-07-31T13:14:37;4.90;;;4.50;;
23720;SDS011;42950;52.134;5.578;2023-07-31T13:17:02;5.13;;;4.47;;
23720;SDS011;42950;52.134;5.578;2023-07-31T13:19:28;6.05;;;4.90;;
23720;SDS011;42950;52.134;5.578;2023-07-31T13:21:53;5.13;;;4.60;;
23720;SDS011;42950;52.134;5.578;2023-07-31T13:24:19;5.75;;;5.30;;
23720;SDS011;42950;52.134;5.578;2023-07-31T13:26:45;7.18;;;4.97;;
23720;SDS011;42950;52.134;5.578;2023-07-31T13:29:10;5.93;;;5.03;;
23720;SDS011;42950;52.134;5.578;2023-07-31T13:31:36;6.00;;;5.40;;
23720;SDS011;42950;52.134;5.578;2023-07-31T13:34:01;5.95;;;5.18;;
23720;SDS011;42950;52.134;5.578;2023-07-31T13:36:27;5.70;;;5.18;;
23720;SDS011;42950;52.134;5.578;2023-07-31T13:38:53;6.03;;;5.38;;
23720;SDS011;42950;52.134;5.578;2023-07-31T13:41:18;5.78;;;5.28;;
23720;SDS011;42950;52.134;5.578;2023-07-31T13:43:44;5.57;;;5.13;;
23720;SDS011;42950;52.134;5.578;2023-07-31T13:46:09;8.05;;;5.13;;
23720;SDS011;42950;52.134;5.578;2023-07-31T13:48:36;6.40;;;5.78;;
23720;SDS011;42950;52.134;5.578;2023-07-31T13:51:01;5.28;;;4.78;;
23720;SDS011;42950;52.134;5.578;2023-07-31T13:53:27;6.47;;;5.88;;
23720;SDS011;42950;52.134;5.578;2023-07-31T13:55:53;6.88;;;6.10;;
23720;SDS011;42950;52.134;5.578;2023-07-31T13:58:20;7.90;;;6.32;;
23720;SDS011;42950;52.134;5.578;2023-07-31T14:00:46;6.70;;;6.10;;
23720;SDS011;42950;52.134;5.578;2023-07-31T14:03:11;7.28;;;6.65;;
23720;SDS011;42950;52.134;5.578;2023-07-31T14:05:37;7.40;;;6.80;;
23720;SDS011;42950;52.134;5.578;2023-07-31T14:08:03;9.45;;;7.25;;
23720;SDS011;42950;52.134;5.578;2023-07-31T14:10:28;8.10;;;7.30;;
23720;SDS011;42950;52.134;5.578;2023-07-31T14:12:54;8.75;;;7.95;;
23720;SDS011;42950;52.134;5.578;2023-07-31T14:15:20;8.82;;;7.93;;
23720;SDS011;42950;52.134;5.578;2023-07-31T14:17:45;8.82;;;8.02;;
23720;SDS011;42950;52.134;5.578;2023-07-31T14:20:11;9.68;;;8.88;;
23720;SDS011;42950;52.134;5.578;2023-07-31T14:22:37;9.10;;;8.30;;
23720;SDS011;42950;52.134;5.578;2023-07-31T14:25:03;9.98;;;9.15;;
23720;SDS011;42950;52.134;5.578;2023-07-31T14:27:29;11.23;;;10.00;;
23720;SDS011;42950;52.134;5.578;2023-07-31T14:29:55;11.60;;;10.40;;
23720;SDS011;42950;52.134;5.578;2023-07-31T14:32:21;10.57;;;9.48;;
23720;SDS011;42950;52.134;5.578;2023-07-31T14:34:48;10.75;;;9.75;;
23720;SDS011;42950;52.134;5.578;2023-07-31T14:37:14;11.43;;;9.20;;
23720;SDS011;42950;52.134;5.578;2023-07-31T14:39:39;12.25;;;8.98;;
23720;SDS011;42950;52.134;5.578;2023-07-31T14:42:05;10.02;;;9.02;;
23720;SDS011;42950;52.134;5.578;2023-07-31T14:44:30;9.30;;;8.48;;
23720;SDS011;42950;52.134;5.578;2023-07-31T14:46:56;9.65;;;8.65;;
23720;SDS011;42950;52.134;5.578;2023-07-31T14:49:21;10.38;;;8.23;;
23720;SDS011;42950;52.134;5.578;2023-07-31T14:51:47;9.50;;;8.50;;
23720;SDS011;42950;52.134;5.578;2023-07-31T14:54:12;9.52;;;8.10;;
23720;SDS011;42950;52.134;5.578;2023-07-31T14:56:38;9.80;;;7.55;;
23720;SDS011;42950;52.134;5.578;2023-07-31T14:59:04;7.68;;;6.97;;
23720;SDS011;42950;52.134;5.578;2023-07-31T15:01:29;10.07;;;7.57;;